sensor_id;sensor_type;location;lat;lon;timestamp;temperature;humidity
35491;DHT22;21605;52.068;20.806;2022-07-12T00:01:18;13.40;99.90
35491;DHT22;21605;52.068;20.806;2022-07-12T00:03:44;13.50;99.90
35491;DHT22;21605;52.068;20.806;2022-07-12T00:06:10;13.40;99.90
35491;DHT22;21605;52.068;20.806;2022-07-12T00:08:36;13.40;99.90
35491;DHT22;21605;52.068;20.806;2022-07-12T00:11:03;13.40;99.90
35491;DHT22;21605;52.068;20.806;2022-07-12T00:13:28;13.40;99.90
35491;DHT22;21605;52.068;20.806;2022-07-12T00:15:55;13.40;99.90
35491;DHT22;21605;52.068;20.806;2022-07-12T00:18:22;13.40;99.90
35491;DHT22;21605;52.068;20.806;2022-07-12T00:20:48;13.40;99.90
35491;DHT22;21605;52.068;20.806;2022-07-12T00:23:14;13.40;99.90
35491;DHT22;21605;52.068;20.806;2022-07-12T00:25:39;13.40;99.90
35491;DHT22;21605;52.068;20.806;2022-07-12T00:28:06;13.40;99.90
35491;DHT22;21605;52.068;20.806;2022-07-12T00:30:32;13.50;99.90
35491;DHT22;21605;52.068;20.806;2022-07-12T00:32:57;13.40;99.90
35491;DHT22;21605;52.068;20.806;2022-07-12T00:35:23;13.50;99.90
35491;DHT22;21605;52.068;20.806;2022-07-12T00:37:49;13.50;99.90
35491;DHT22;21605;52.068;20.806;2022-07-12T00:40:14;13.50;99.90
35491;DHT22;21605;52.068;20.806;2022-07-12T00:42:40;13.50;99.90
35491;DHT22;21605;52.068;20.806;2022-07-12T00:45:07;13.50;99.90
35491;DHT22;21605;52.068;20.806;2022-07-12T00:47:43;13.50;99.90
35491;DHT22;21605;52.068;20.806;2022-07-12T00:50:15;13.60;99.90
35491;DHT22;21605;52.068;20.806;2022-07-12T00:52:44;13.60;99.90
35491;DHT22;21605;52.068;20.806;2022-07-12T00:55:11;13.60;99.90
35491;DHT22;21605;52.068;20.806;2022-07-12T00:57:38;13.60;99.90
35491;DHT22;21605;52.068;20.806;2022-07-12T01:00:07;13.60;99.90
35491;DHT22;21605;52.068;20.806;2022-07-12T01:02:35;13.70;99.90
35491;DHT22;21605;52.068;20.806;2022-07-12T01:05:02;13.70;99.90
35491;DHT22;21605;52.068;20.806;2022-07-12T01:07:29;13.70;99.90
35491;DHT22;21605;52.068;20.806;2022-07-12T01:09:55;13.70;99.90
35491;DHT22;21605;52.068;20.806;2022-07-12T01:12:21;13.70;99.90
35491;DHT22;21605;52.068;20.806;2022-07-12T01:14:51;13.70;99.90
35491;DHT22;21605;52.068;20.806;2022-07-12T01:17:21;13.70;99.90
35491;DHT22;21605;52.068;20.806;2022-07-12T01:19:48;13.70;99.90
35491;DHT22;21605;52.068;20.806;2022-07-12T01:22:15;13.70;99.90
35491;DHT22;21605;52.068;20.806;2022-07-12T01:24:43;13.70;99.90
35491;DHT22;21605;52.068;20.806;2022-07-12T01:27:09;13.70;99.90
35491;DHT22;21605;52.068;20.806;2022-07-12T01:29:36;13.60;99.90
35491;DHT22;21605;52.068;20.806;2022-07-12T01:32:05;13.60;99.90
35491;DHT22;21605;52.068;20.806;2022-07-12T01:35:03;13.60;99.90
35491;DHT22;21605;52.068;20.806;2022-07-12T01:37:31;13.70;99.90
35491;DHT22;21605;52.068;20.806;2022-07-12T01:39:58;13.60;99.90
35491;DHT22;21605;52.068;20.806;2022-07-12T01:42:25;13.60;99.90
35491;DHT22;21605;52.068;20.806;2022-07-12T01:44:52;13.60;99.90
35491;DHT22;21605;52.068;20.806;2022-07-12T01:47:20;13.70;99.90
35491;DHT22;21605;52.068;20.806;2022-07-12T01:49:46;13.70;99.90
35491;DHT22;21605;52.068;20.806;2022-07-12T01:52:12;13.70;99.90
35491;DHT22;21605;52.068;20.806;2022-07-12T01:54:38;13.70;99.90
35491;DHT22;21605;52.068;20.806;2022-07-12T01:57:05;13.70;99.90
35491;DHT22;21605;52.068;20.806;2022-07-12T01:59:31;13.70;99.90
35491;DHT22;21605;52.068;20.806;2022-07-12T02:04:22;13.80;99.90
35491;DHT22;21605;52.068;20.806;2022-07-12T02:06:48;13.80;99.90
35491;DHT22;21605;52.068;20.806;2022-07-12T02:09:15;13.80;99.90
35491;DHT22;21605;52.068;20.806;2022-07-12T02:11:42;13.80;99.90
35491;DHT22;21605;52.068;20.806;2022-07-12T02:14:09;13.80;99.90
35491;DHT22;21605;52.068;20.806;2022-07-12T02:16:34;13.80;99.90
35491;DHT22;21605;52.068;20.806;2022-07-12T02:19:00;13.90;99.90
35491;DHT22;21605;52.068;20.806;2022-07-12T02:21:26;13.80;99.90
35491;DHT22;21605;52.068;20.806;2022-07-12T02:23:52;13.90;99.90
35491;DHT22;21605;52.068;20.806;2022-07-12T02:26:17;13.90;99.90
35491;DHT22;21605;52.068;20.806;2022-07-12T02:28:43;13.90;99.90
35491;DHT22;21605;52.068;20.806;2022-07-12T02:31:09;13.90;99.90
35491;DHT22;21605;52.068;20.806;2022-07-12T02:33:35;13.90;99.90
35491;DHT22;21605;52.068;20.806;2022-07-12T02:36:01;13.90;99.90
35491;DHT22;21605;52.068;20.806;2022-07-12T02:38:27;13.90;99.90
35491;DHT22;21605;52.068;20.806;2022-07-12T02:40:53;13.90;99.90
35491;DHT22;21605;52.068;20.806;2022-07-12T02:43:30;13.90;99.90
35491;DHT22;21605;52.068;20.806;2022-07-12T02:46:06;13.80;99.90
35491;DHT22;21605;52.068;20.806;2022-07-12T02:48:32;13.80;99.90
35491;DHT22;21605;52.068;20.806;2022-07-12T02:51:01;13.80;99.90
35491;DHT22;21605;52.068;20.806;2022-07-12T02:53:27;13.80;99.90
35491;DHT22;21605;52.068;20.806;2022-07-12T02:55:53;13.80;99.90
35491;DHT22;21605;52.068;20.806;2022-07-12T02:58:19;13.80;99.90
35491;DHT22;21605;52.068;20.806;2022-07-12T03:00:45;13.80;99.90
35491;DHT22;21605;52.068;20.806;2022-07-12T03:03:14;13.80;99.90
35491;DHT22;21605;52.068;20.806;2022-07-12T03:05:40;13.80;99.90
35491;DHT22;21605;52.068;20.806;2022-07-12T03:08:07;13.80;99.90
35491;DHT22;21605;52.068;20.806;2022-07-12T03:10:34;13.80;99.90
35491;DHT22;21605;52.068;20.806;2022-07-12T03:13:00;13.80;99.90
35491;DHT22;21605;52.068;20.806;2022-07-12T03:15:26;13.90;99.90
35491;DHT22;21605;52.068;20.806;2022-07-12T03:17:53;13.90;99.90
35491;DHT22;21605;52.068;20.806;2022-07-12T03:20:19;13.90;99.90
35491;DHT22;21605;52.068;20.806;2022-07-12T03:22:44;13.90;99.90
35491;DHT22;21605;52.068;20.806;2022-07-12T03:25:13;13.90;99.90
35491;DHT22;21605;52.068;20.806;2022-07-12T03:27:39;13.90;99.90
35491;DHT22;21605;52.068;20.806;2022-07-12T03:30:05;13.90;99.90
35491;DHT22;21605;52.068;20.806;2022-07-12T03:32:32;13.90;99.90
35491;DHT22;21605;52.068;20.806;2022-07-12T03:34:57;13.90;99.90
35491;DHT22;21605;52.068;20.806;2022-07-12T03:37:23;13.90;99.90
35491;DHT22;21605;52.068;20.806;2022-07-12T03:39:48;13.90;99.90
35491;DHT22;21605;52.068;20.806;2022-07-12T03:42:14;13.90;99.90
35491;DHT22;21605;52.068;20.806;2022-07-12T03:44:40;14.00;99.90
35491;DHT22;21605;52.068;20.806;2022-07-12T03:47:05;14.00;99.90
35491;DHT22;21605;52.068;20.806;2022-07-12T03:49:31;14.00;99.90
35491;DHT22;21605;52.068;20.806;2022-07-12T03:51:57;14.10;99.90
35491;DHT22;21605;52.068;20.806;2022-07-12T03:54:23;14.10;99.90
35491;DHT22;21605;52.068;20.806;2022-07-12T03:56:49;14.10;99.90
35491;DHT22;21605;52.068;20.806;2022-07-12T03:59:33;14.10;99.90
35491;DHT22;21605;52.068;20.806;2022-07-12T04:01:59;14.20;99.90
35491;DHT22;21605;52.068;20.806;2022-07-12T04:04:24;14.20;99.90
35491;DHT22;21605;52.068;20.806;2022-07-12T04:06:50;14.20;99.90
35491;DHT22;21605;52.068;20.806;2022-07-12T04:09:16;14.30;99.90
35491;DHT22;21605;52.068;20.806;2022-07-12T04:11:41;14.30;99.90
35491;DHT22;21605;52.068;20.806;2022-07-12T04:14:07;14.30;99.90
35491;DHT22;21605;52.068;20.806;2022-07-12T04:16:32;14.40;99.90
35491;DHT22;21605;52.068;20.806;2022-07-12T04:18:58;14.40;99.90
35491;DHT22;21605;52.068;20.806;2022-07-12T04:21:24;14.40;99.90
35491;DHT22;21605;52.068;20.806;2022-07-12T04:23:50;14.40;99.90
35491;DHT22;21605;52.068;20.806;2022-07-12T04:26:17;14.50;99.90
35491;DHT22;21605;52.068;20.806;2022-07-12T04:28:42;14.50;99.90
35491;DHT22;21605;52.068;20.806;2022-07-12T04:31:08;14.60;99.90
35491;DHT22;21605;52.068;20.806;2022-07-12T04:33:35;14.60;99.90
35491;DHT22;21605;52.068;20.806;2022-07-12T04:36:00;14.70;99.90
35491;DHT22;21605;52.068;20.806;2022-07-12T04:38:26;14.70;99.90
35491;DHT22;21605;52.068;20.806;2022-07-12T04:40:52;14.80;99.90
35491;DHT22;21605;52.068;20.806;2022-07-12T04:43:17;14.80;99.90
35491;DHT22;21605;52.068;20.806;2022-07-12T04:45:43;14.80;99.90
35491;DHT22;21605;52.068;20.806;2022-07-12T04:48:11;14.80;99.90
35491;DHT22;21605;52.068;20.806;2022-07-12T04:50:37;14.90;99.90
35491;DHT22;21605;52.068;20.806;2022-07-12T04:53:03;14.90;99.90
35491;DHT22;21605;52.068;20.806;2022-07-12T04:55:29;14.90;99.90
35491;DHT22;21605;52.068;20.806;2022-07-12T04:57:54;15.00;99.90
35491;DHT22;21605;52.068;20.806;2022-07-12T05:00:21;15.00;99.90
35491;DHT22;21605;52.068;20.806;2022-07-12T05:02:46;15.00;99.90
35491;DHT22;21605;52.068;20.806;2022-07-12T05:05:12;15.10;99.90
35491;DHT22;21605;52.068;20.806;2022-07-12T05:07:40;15.10;99.90
35491;DHT22;21605;52.068;20.806;2022-07-12T05:10:06;15.10;99.90
35491;DHT22;21605;52.068;20.806;2022-07-12T05:12:31;15.20;99.90
35491;DHT22;21605;52.068;20.806;2022-07-12T05:14:57;15.20;99.90
35491;DHT22;21605;52.068;20.806;2022-07-12T05:17:22;15.20;99.90
35491;DHT22;21605;52.068;20.806;2022-07-12T05:19:48;15.20;99.90
35491;DHT22;21605;52.068;20.806;2022-07-12T05:22:14;15.30;99.90
35491;DHT22;21605;52.068;20.806;2022-07-12T05:24:39;15.30;99.90
35491;DHT22;21605;52.068;20.806;2022-07-12T05:27:05;15.40;99.90
35491;DHT22;21605;52.068;20.806;2022-07-12T05:29:30;15.40;99.90
35491;DHT22;21605;52.068;20.806;2022-07-12T05:31:56;15.50;99.90
35491;DHT22;21605;52.068;20.806;2022-07-12T05:34:23;15.60;99.90
35491;DHT22;21605;52.068;20.806;2022-07-12T05:36:48;15.60;99.90
35491;DHT22;21605;52.068;20.806;2022-07-12T05:39:16;15.70;99.90
35491;DHT22;21605;52.068;20.806;2022-07-12T05:41:41;15.70;99.90
35491;DHT22;21605;52.068;20.806;2022-07-12T05:44:07;15.80;99.90
35491;DHT22;21605;52.068;20.806;2022-07-12T05:46:33;15.80;99.90
35491;DHT22;21605;52.068;20.806;2022-07-12T05:48:58;15.90;99.90
35491;DHT22;21605;52.068;20.806;2022-07-12T05:51:24;15.90;99.90
35491;DHT22;21605;52.068;20.806;2022-07-12T05:54:08;16.00;99.90
35491;DHT22;21605;52.068;20.806;2022-07-12T05:56:36;16.10;99.90
35491;DHT22;21605;52.068;20.806;2022-07-12T05:59:02;16.20;99.90
35491;DHT22;21605;52.068;20.806;2022-07-12T06:01:27;16.20;99.90
35491;DHT22;21605;52.068;20.806;2022-07-12T06:03:53;16.30;99.90
35491;DHT22;21605;52.068;20.806;2022-07-12T06:06:18;16.40;99.90
35491;DHT22;21605;52.068;20.806;2022-07-12T06:08:44;16.50;99.90
35491;DHT22;21605;52.068;20.806;2022-07-12T06:11:10;16.60;99.90
35491;DHT22;21605;52.068;20.806;2022-07-12T06:13:35;16.60;99.90
35491;DHT22;21605;52.068;20.806;2022-07-12T06:16:01;16.70;99.90
35491;DHT22;21605;52.068;20.806;2022-07-12T06:18:26;16.80;99.90
35491;DHT22;21605;52.068;20.806;2022-07-12T06:20:53;16.80;99.90
35491;DHT22;21605;52.068;20.806;2022-07-12T06:23:18;16.90;99.90
35491;DHT22;21605;52.068;20.806;2022-07-12T06:25:44;16.90;99.90
35491;DHT22;21605;52.068;20.806;2022-07-12T06:28:10;16.90;99.90
35491;DHT22;21605;52.068;20.806;2022-07-12T06:30:36;17.00;99.90
35491;DHT22;21605;52.068;20.806;2022-07-12T06:33:02;17.10;99.90
35491;DHT22;21605;52.068;20.806;2022-07-12T06:35:28;17.10;99.90
35491;DHT22;21605;52.068;20.806;2022-07-12T06:37:53;17.20;99.90
35491;DHT22;21605;52.068;20.806;2022-07-12T06:40:19;17.20;99.90
35491;DHT22;21605;52.068;20.806;2022-07-12T06:42:44;17.40;99.90
35491;DHT22;21605;52.068;20.806;2022-07-12T06:45:11;17.50;99.90
35491;DHT22;21605;52.068;20.806;2022-07-12T06:47:36;17.50;99.90
35491;DHT22;21605;52.068;20.806;2022-07-12T06:50:05;17.60;99.90
35491;DHT22;21605;52.068;20.806;2022-07-12T06:52:31;17.60;99.90
35491;DHT22;21605;52.068;20.806;2022-07-12T06:54:58;17.70;99.90
35491;DHT22;21605;52.068;20.806;2022-07-12T06:57:24;17.70;99.90
35491;DHT22;21605;52.068;20.806;2022-07-12T06:59:52;17.70;99.90
35491;DHT22;21605;52.068;20.806;2022-07-12T07:02:17;17.70;99.90
35491;DHT22;21605;52.068;20.806;2022-07-12T07:04:43;17.70;99.90
35491;DHT22;21605;52.068;20.806;2022-07-12T07:07:09;17.70;99.90
35491;DHT22;21605;52.068;20.806;2022-07-12T07:09:34;17.80;99.90
35491;DHT22;21605;52.068;20.806;2022-07-12T07:12:00;17.80;99.90
35491;DHT22;21605;52.068;20.806;2022-07-12T07:14:26;17.80;99.90
35491;DHT22;21605;52.068;20.806;2022-07-12T07:16:55;17.90;99.90
35491;DHT22;21605;52.068;20.806;2022-07-12T07:19:20;17.90;99.90
35491;DHT22;21605;52.068;20.806;2022-07-12T07:21:48;17.90;99.90
35491;DHT22;21605;52.068;20.806;2022-07-12T07:24:14;18.00;99.90
35491;DHT22;21605;52.068;20.806;2022-07-12T07:26:39;18.10;99.90
35491;DHT22;21605;52.068;20.806;2022-07-12T07:29:05;18.10;99.90
35491;DHT22;21605;52.068;20.806;2022-07-12T07:31:49;18.20;99.90
35491;DHT22;21605;52.068;20.806;2022-07-12T07:34:14;18.30;99.90
35491;DHT22;21605;52.068;20.806;2022-07-12T07:36:40;18.40;99.90
35491;DHT22;21605;52.068;20.806;2022-07-12T07:39:06;18.50;99.90
35491;DHT22;21605;52.068;20.806;2022-07-12T07:41:31;18.60;99.90
35491;DHT22;21605;52.068;20.806;2022-07-12T07:43:57;18.70;99.90
35491;DHT22;21605;52.068;20.806;2022-07-12T07:46:22;18.70;99.90
35491;DHT22;21605;52.068;20.806;2022-07-12T07:48:48;18.80;99.90
35491;DHT22;21605;52.068;20.806;2022-07-12T07:51:14;18.90;99.90
35491;DHT22;21605;52.068;20.806;2022-07-12T07:53:39;18.90;99.90
35491;DHT22;21605;52.068;20.806;2022-07-12T07:56:05;19.00;99.90
35491;DHT22;21605;52.068;20.806;2022-07-12T07:58:31;19.20;99.90
35491;DHT22;21605;52.068;20.806;2022-07-12T08:00:56;19.30;99.90
35491;DHT22;21605;52.068;20.806;2022-07-12T08:03:22;19.40;99.90
35491;DHT22;21605;52.068;20.806;2022-07-12T08:05:48;19.50;99.90
35491;DHT22;21605;52.068;20.806;2022-07-12T08:08:16;19.60;99.90
35491;DHT22;21605;52.068;20.806;2022-07-12T08:10:43;19.60;99.90
35491;DHT22;21605;52.068;20.806;2022-07-12T08:13:08;19.60;99.90
35491;DHT22;21605;52.068;20.806;2022-07-12T08:15:34;19.70;99.90
35491;DHT22;21605;52.068;20.806;2022-07-12T08:18:00;19.80;99.90
35491;DHT22;21605;52.068;20.806;2022-07-12T08:20:25;19.90;99.90
35491;DHT22;21605;52.068;20.806;2022-07-12T08:22:51;19.90;99.90
35491;DHT22;21605;52.068;20.806;2022-07-12T08:25:17;20.00;99.90
35491;DHT22;21605;52.068;20.806;2022-07-12T08:27:43;20.00;99.90
35491;DHT22;21605;52.068;20.806;2022-07-12T08:30:09;20.00;99.50
35491;DHT22;21605;52.068;20.806;2022-07-12T08:32:36;20.10;99.90
35491;DHT22;21605;52.068;20.806;2022-07-12T08:35:02;20.10;98.90
35491;DHT22;21605;52.068;20.806;2022-07-12T08:37:27;20.10;99.60
35491;DHT22;21605;52.068;20.806;2022-07-12T08:39:53;20.20;99.90
35491;DHT22;21605;52.068;20.806;2022-07-12T08:42:19;20.20;99.60
35491;DHT22;21605;52.068;20.806;2022-07-12T08:44:53;20.30;99.90
35491;DHT22;21605;52.068;20.806;2022-07-12T08:47:18;20.40;99.60
35491;DHT22;21605;52.068;20.806;2022-07-12T08:50:14;20.40;99.40
35491;DHT22;21605;52.068;20.806;2022-07-12T08:52:44;20.50;99.30
35491;DHT22;21605;52.068;20.806;2022-07-12T08:55:21;20.50;99.20
35491;DHT22;21605;52.068;20.806;2022-07-12T08:57:49;20.50;98.80
35491;DHT22;21605;52.068;20.806;2022-07-12T09:00:15;20.70;98.20
35491;DHT22;21605;52.068;20.806;2022-07-12T09:02:52;20.80;98.60
35491;DHT22;21605;52.068;20.806;2022-07-12T09:05:23;20.90;97.70
35491;DHT22;21605;52.068;20.806;2022-07-12T09:07:49;21.00;98.40
35491;DHT22;21605;52.068;20.806;2022-07-12T09:10:17;21.10;98.20
35491;DHT22;21605;52.068;20.806;2022-07-12T09:12:44;21.10;97.50
35491;DHT22;21605;52.068;20.806;2022-07-12T09:17:47;21.30;97.60
35491;DHT22;21605;52.068;20.806;2022-07-12T09:20:19;21.50;97.50
35491;DHT22;21605;52.068;20.806;2022-07-12T09:22:51;21.50;96.40
35491;DHT22;21605;52.068;20.806;2022-07-12T09:25:18;21.50;96.40
35491;DHT22;21605;52.068;20.806;2022-07-12T09:27:49;21.60;96.90
35491;DHT22;21605;52.068;20.806;2022-07-12T09:30:15;21.60;96.80
35491;DHT22;21605;52.068;20.806;2022-07-12T09:35:38;21.70;96.20
35491;DHT22;21605;52.068;20.806;2022-07-12T09:38:22;21.70;95.90
35491;DHT22;21605;52.068;20.806;2022-07-12T09:40:48;21.70;95.70
35491;DHT22;21605;52.068;20.806;2022-07-12T09:43:15;21.70;96.10
35491;DHT22;21605;52.068;20.806;2022-07-12T09:45:42;21.60;95.70
35491;DHT22;21605;52.068;20.806;2022-07-12T09:48:09;21.60;95.30
35491;DHT22;21605;52.068;20.806;2022-07-12T09:50:38;21.60;95.70
35491;DHT22;21605;52.068;20.806;2022-07-12T09:53:05;21.60;94.90
35491;DHT22;21605;52.068;20.806;2022-07-12T09:55:37;21.60;95.60
35491;DHT22;21605;52.068;20.806;2022-07-12T09:58:07;21.60;94.30
35491;DHT22;21605;52.068;20.806;2022-07-12T10:00:34;21.60;94.70
35491;DHT22;21605;52.068;20.806;2022-07-12T10:03:03;23.30;94.80
35491;DHT22;21605;52.068;20.806;2022-07-12T10:05:29;21.60;94.70
35491;DHT22;21605;52.068;20.806;2022-07-12T10:07:56;21.60;94.40
35491;DHT22;21605;52.068;20.806;2022-07-12T10:10:22;21.70;95.50
35491;DHT22;21605;52.068;20.806;2022-07-12T10:12:49;21.80;94.50
35491;DHT22;21605;52.068;20.806;2022-07-12T10:15:18;21.70;94.50
35491;DHT22;21605;52.068;20.806;2022-07-12T10:17:52;21.80;94.30
35491;DHT22;21605;52.068;20.806;2022-07-12T10:20:26;21.90;93.70
35491;DHT22;21605;52.068;20.806;2022-07-12T10:25:38;21.90;94.30
35491;DHT22;21605;52.068;20.806;2022-07-12T10:28:04;21.90;94.30
35491;DHT22;21605;52.068;20.806;2022-07-12T10:30:30;22.00;94.10
35491;DHT22;21605;52.068;20.806;2022-07-12T10:32:59;22.00;94.40
35491;DHT22;21605;52.068;20.806;2022-07-12T10:35:30;22.10;94.40
35491;DHT22;21605;52.068;20.806;2022-07-12T10:38:15;22.10;94.10
35491;DHT22;21605;52.068;20.806;2022-07-12T10:40:42;22.10;94.00
35491;DHT22;21605;52.068;20.806;2022-07-12T10:45:40;22.10;93.70
35491;DHT22;21605;52.068;20.806;2022-07-12T10:48:09;22.00;92.80
35491;DHT22;21605;52.068;20.806;2022-07-12T10:58:40;21.90;93.40
35491;DHT22;21605;52.068;20.806;2022-07-12T11:01:31;21.70;92.30
35491;DHT22;21605;52.068;20.806;2022-07-12T11:04:06;21.70;92.70
35491;DHT22;21605;52.068;20.806;2022-07-12T11:06:39;21.60;92.50
35491;DHT22;21605;52.068;20.806;2022-07-12T11:11:35;21.60;92.60
35491;DHT22;21605;52.068;20.806;2022-07-12T11:14:04;21.60;92.20
35491;DHT22;21605;52.068;20.806;2022-07-12T11:16:30;21.60;92.70
35491;DHT22;21605;52.068;20.806;2022-07-12T11:18:56;21.60;92.70
35491;DHT22;21605;52.068;20.806;2022-07-12T11:21:23;21.60;93.00
35491;DHT22;21605;52.068;20.806;2022-07-12T11:23:49;21.60;92.80
35491;DHT22;21605;52.068;20.806;2022-07-12T11:26:15;21.50;91.70
35491;DHT22;21605;52.068;20.806;2022-07-12T11:28:43;21.40;92.60
35491;DHT22;21605;52.068;20.806;2022-07-12T11:31:13;21.50;93.00
35491;DHT22;21605;52.068;20.806;2022-07-12T11:33:40;21.50;92.90
35491;DHT22;21605;52.068;20.806;2022-07-12T11:36:08;21.40;92.70
35491;DHT22;21605;52.068;20.806;2022-07-12T11:38:36;21.50;93.10
35491;DHT22;21605;52.068;20.806;2022-07-12T11:41:04;21.50;93.10
35491;DHT22;21605;52.068;20.806;2022-07-12T11:43:31;21.50;93.20
35491;DHT22;21605;52.068;20.806;2022-07-12T11:45:58;21.40;92.60
35491;DHT22;21605;52.068;20.806;2022-07-12T11:48:24;21.40;92.40
35491;DHT22;21605;52.068;20.806;2022-07-12T11:50:51;21.40;93.00
35491;DHT22;21605;52.068;20.806;2022-07-12T11:53:20;21.40;92.50
35491;DHT22;21605;52.068;20.806;2022-07-12T11:55:47;21.40;92.60
35491;DHT22;21605;52.068;20.806;2022-07-12T11:58:14;21.40;92.30
35491;DHT22;21605;52.068;20.806;2022-07-12T12:00:40;21.40;92.90
35491;DHT22;21605;52.068;20.806;2022-07-12T12:03:06;21.40;93.10
35491;DHT22;21605;52.068;20.806;2022-07-12T12:05:34;21.40;93.00
35491;DHT22;21605;52.068;20.806;2022-07-12T12:08:01;21.30;92.40
35491;DHT22;21605;52.068;20.806;2022-07-12T12:10:26;21.30;92.50
35491;DHT22;21605;52.068;20.806;2022-07-12T12:12:58;21.30;92.40
35491;DHT22;21605;52.068;20.806;2022-07-12T12:15:28;21.30;92.50
35491;DHT22;21605;52.068;20.806;2022-07-12T12:17:56;21.30;92.50
35491;DHT22;21605;52.068;20.806;2022-07-12T12:20:38;21.30;92.80
35491;DHT22;21605;52.068;20.806;2022-07-12T12:23:24;21.30;92.40
35491;DHT22;21605;52.068;20.806;2022-07-12T12:25:49;21.20;92.90
35491;DHT22;21605;52.068;20.806;2022-07-12T12:28:15;21.30;92.80
35491;DHT22;21605;52.068;20.806;2022-07-12T12:30:55;21.20;92.10
35491;DHT22;21605;52.068;20.806;2022-07-12T12:33:37;21.20;92.10
35491;DHT22;21605;52.068;20.806;2022-07-12T12:36:23;21.20;92.40
35491;DHT22;21605;52.068;20.806;2022-07-12T12:38:51;21.20;91.90
35491;DHT22;21605;52.068;20.806;2022-07-12T12:41:17;21.10;92.30
35491;DHT22;21605;52.068;20.806;2022-07-12T12:43:44;21.10;92.30
35491;DHT22;21605;52.068;20.806;2022-07-12T12:46:10;21.10;92.50
35491;DHT22;21605;52.068;20.806;2022-07-12T12:48:36;21.10;92.00
35491;DHT22;21605;52.068;20.806;2022-07-12T12:51:09;21.10;92.40
35491;DHT22;21605;52.068;20.806;2022-07-12T12:53:37;21.10;92.70
35491;DHT22;21605;52.068;20.806;2022-07-12T12:56:06;21.10;92.30
35491;DHT22;21605;52.068;20.806;2022-07-12T12:58:33;21.20;91.60
35491;DHT22;21605;52.068;20.806;2022-07-12T13:00:59;21.10;91.50
35491;DHT22;21605;52.068;20.806;2022-07-12T13:03:25;21.10;91.50
35491;DHT22;21605;52.068;20.806;2022-07-12T13:05:51;21.10;91.20
35491;DHT22;21605;52.068;20.806;2022-07-12T13:08:17;21.10;91.20
35491;DHT22;21605;52.068;20.806;2022-07-12T13:10:44;21.10;91.50
35491;DHT22;21605;52.068;20.806;2022-07-12T13:13:10;21.10;91.70
35491;DHT22;21605;52.068;20.806;2022-07-12T13:15:36;21.10;91.90
35491;DHT22;21605;52.068;20.806;2022-07-12T13:18:03;21.10;91.70
35491;DHT22;21605;52.068;20.806;2022-07-12T13:20:30;21.10;92.10
35491;DHT22;21605;52.068;20.806;2022-07-12T13:22:56;21.10;92.00
35491;DHT22;21605;52.068;20.806;2022-07-12T13:25:22;21.10;91.80
35491;DHT22;21605;52.068;20.806;2022-07-12T13:27:49;21.10;91.50
35491;DHT22;21605;52.068;20.806;2022-07-12T13:30:16;21.10;91.10
35491;DHT22;21605;52.068;20.806;2022-07-12T13:32:43;21.10;90.80
35491;DHT22;21605;52.068;20.806;2022-07-12T13:35:10;21.10;91.10
35491;DHT22;21605;52.068;20.806;2022-07-12T13:37:37;21.10;90.80
35491;DHT22;21605;52.068;20.806;2022-07-12T13:40:04;21.20;91.30
35491;DHT22;21605;52.068;20.806;2022-07-12T13:42:50;21.20;90.90
35491;DHT22;21605;52.068;20.806;2022-07-12T13:45:18;21.20;91.90
35491;DHT22;21605;52.068;20.806;2022-07-12T13:47:45;21.20;90.90
35491;DHT22;21605;52.068;20.806;2022-07-12T13:50:15;21.20;91.00
35491;DHT22;21605;52.068;20.806;2022-07-12T13:52:42;21.30;90.90
35491;DHT22;21605;52.068;20.806;2022-07-12T13:55:09;21.30;91.40
35491;DHT22;21605;52.068;20.806;2022-07-12T13:57:39;21.30;90.50
35491;DHT22;21605;52.068;20.806;2022-07-12T14:00:06;21.30;91.50
35491;DHT22;21605;52.068;20.806;2022-07-12T14:02:35;21.30;91.20
35491;DHT22;21605;52.068;20.806;2022-07-12T14:05:03;21.30;90.90
35491;DHT22;21605;52.068;20.806;2022-07-12T14:07:29;21.30;91.30
35491;DHT22;21605;52.068;20.806;2022-07-12T14:09:54;21.30;90.40
35491;DHT22;21605;52.068;20.806;2022-07-12T14:12:20;21.30;90.80
35491;DHT22;21605;52.068;20.806;2022-07-12T14:14:46;21.30;91.30
35491;DHT22;21605;52.068;20.806;2022-07-12T14:17:30;21.20;91.20
35491;DHT22;21605;52.068;20.806;2022-07-12T14:19:55;21.20;90.60
35491;DHT22;21605;52.068;20.806;2022-07-12T14:22:21;21.10;90.30
35491;DHT22;21605;52.068;20.806;2022-07-12T14:24:47;21.10;91.10
35491;DHT22;21605;52.068;20.806;2022-07-12T14:27:12;21.10;90.60
35491;DHT22;21605;52.068;20.806;2022-07-12T14:29:38;21.00;91.00
35491;DHT22;21605;52.068;20.806;2022-07-12T14:32:04;20.90;90.20
35491;DHT22;21605;52.068;20.806;2022-07-12T14:34:30;20.90;90.60
35491;DHT22;21605;52.068;20.806;2022-07-12T14:36:56;20.80;90.30
35491;DHT22;21605;52.068;20.806;2022-07-12T14:39:22;20.80;90.00
35491;DHT22;21605;52.068;20.806;2022-07-12T14:41:48;20.80;90.50
35491;DHT22;21605;52.068;20.806;2022-07-12T14:44:14;20.80;90.70
35491;DHT22;21605;52.068;20.806;2022-07-12T14:46:40;20.70;90.00
35491;DHT22;21605;52.068;20.806;2022-07-12T14:49:06;20.70;90.00
35491;DHT22;21605;52.068;20.806;2022-07-12T14:51:31;20.70;90.00
35491;DHT22;21605;52.068;20.806;2022-07-12T14:53:57;20.70;90.00
35491;DHT22;21605;52.068;20.806;2022-07-12T14:56:23;20.70;90.90
35491;DHT22;21605;52.068;20.806;2022-07-12T14:58:48;20.70;90.60
35491;DHT22;21605;52.068;20.806;2022-07-12T15:01:14;20.70;90.60
35491;DHT22;21605;52.068;20.806;2022-07-12T15:03:39;20.70;90.70
35491;DHT22;21605;52.068;20.806;2022-07-12T15:06:05;20.70;90.70
35491;DHT22;21605;52.068;20.806;2022-07-12T15:08:31;20.70;90.60
35491;DHT22;21605;52.068;20.806;2022-07-12T15:10:57;20.60;89.70
35491;DHT22;21605;52.068;20.806;2022-07-12T15:13:25;20.70;90.70
35491;DHT22;21605;52.068;20.806;2022-07-12T15:15:53;20.70;90.70
35491;DHT22;21605;52.068;20.806;2022-07-12T15:18:19;20.70;90.60
35491;DHT22;21605;52.068;20.806;2022-07-12T15:20:44;20.60;90.70
35491;DHT22;21605;52.068;20.806;2022-07-12T15:23:10;20.60;90.60
35491;DHT22;21605;52.068;20.806;2022-07-12T15:25:35;20.60;90.50
35491;DHT22;21605;52.068;20.806;2022-07-12T15:28:01;20.60;91.00
35491;DHT22;21605;52.068;20.806;2022-07-12T15:30:27;20.60;90.70
35491;DHT22;21605;52.068;20.806;2022-07-12T15:32:52;20.60;90.60
35491;DHT22;21605;52.068;20.806;2022-07-12T15:35:21;20.60;90.80
35491;DHT22;21605;52.068;20.806;2022-07-12T15:37:47;20.60;90.50
35491;DHT22;21605;52.068;20.806;2022-07-12T15:40:12;20.60;90.70